Highland Village, Texas
Current Conditions -  °F | °C
As of 5:53 PM on Saturday 25 Oct 2014 (Local Time) from KDFW Reporting Station
Clear Clear  
Wind Chill: 86°   Ceiling: Unl
Heat Index: 86°   Visibility: 10mi
Dew Point: 59°   Wind: 8mph
Humidity: 40%   Direction: 200°SSW
Pressure: 30.04"   Gusts: NA
Location:  33.0461°N, 96.9938°W
Report Text: KDFW 252253Z 20007KT 10SM CLR 30/15 A3004 RMK AO2 SLP166 T03000150
Loading
Personal Weather Stations






























Interactive Weather Map
Tropical Storm Tracking
New forecast layout! Learn more

10-Day Weather Forecast

Advertisements
Track Severe Weather on mobile